Time;durP1;ratioP1;P1;durP2;ratioP2;P2;SDS_P1;SDS_P2;PMS_P1;PMS_P2;Temp;Humidity;BMP_temperature;BMP_pressure;BME280_temperature;BME280_humidity;BME280_pressure;Samples;Min_cycle;Max_cycle;Signal;HPM_P1;HPM_P2
2021/09/10 00:01:54;;;;;;;17.27;9.83;;;17.20;99.90;;;;;;4808689;29;20222;-62
2021/09/10 00:04:19;;;;;;;14.93;9.90;;;17.20;99.90;;;;;;4808395;29;20203;-62
2021/09/10 00:06:45;;;;;;;13.80;8.73;;;17.20;99.90;;;;;;4808790;29;20229;-62
2021/09/10 00:09:10;;;;;;;13.40;10.03;;;17.20;99.90;;;;;;4808128;29;20612;-62
2021/09/10 00:11:36;;;;;;;14.37;8.87;;;17.10;99.90;;;;;;4808770;29;20218;-62
2021/09/10 00:14:02;;;;;;;13.27;8.57;;;17.10;99.90;;;;;;4808043;29;20210;-62
2021/09/10 00:16:27;;;;;;;13.80;8.67;;;17.10;99.90;;;;;;4808622;29;20645;-62
2021/09/10 00:18:53;;;;;;;12.10;9.67;;;17.10;99.90;;;;;;4807914;29;20237;-62
2021/09/10 00:21:19;;;;;;;12.20;8.53;;;17.00;99.90;;;;;;4808097;29;20529;-62
2021/09/10 00:23:44;;;;;;;14.70;9.80;;;17.00;99.90;;;;;;4807895;29;20289;-62
2021/09/10 00:26:10;;;;;;;14.00;8.60;;;17.00;99.90;;;;;;4808342;29;20186;-62
2021/09/10 00:28:35;;;;;;;13.23;9.40;;;17.00;99.90;;;;;;4806666;29;20214;-62
2021/09/10 00:31:02;;;;;;;10.47;8.40;;;17.00;99.90;;;;;;4807745;29;20222;-62
2021/09/10 00:33:28;;;;;;;10.73;8.43;;;16.90;99.90;;;;;;4807734;29;20256;-62
2021/09/10 00:35:54;;;;;;;15.57;8.87;;;16.90;99.90;;;;;;4806406;29;20470;-62
2021/09/10 00:38:20;;;;;;;10.97;8.47;;;16.80;99.90;;;;;;4807697;29;20460;-62
2021/09/10 00:40:46;;;;;;;12.10;9.10;;;16.80;99.90;;;;;;4807897;29;20397;-62
2021/09/10 00:43:12;;;;;;;14.60;9.47;;;16.80;99.90;;;;;;4807601;29;20209;-62
2021/09/10 00:45:46;;;;;;;13.73;8.90;;;16.80;99.90;;;;;;4806433;29;20226;-62
2021/09/10 00:48:14;;;;;;;12.90;9.40;;;16.80;99.90;;;;;;4807611;29;20442;-63
2021/09/10 00:50:41;;;;;;;15.93;10.40;;;16.80;99.90;;;;;;4807597;29;20438;-62
2021/09/10 00:53:07;;;;;;;14.33;9.60;;;16.70;99.90;;;;;;4807445;29;20985;-62
2021/09/10 00:55:35;;;;;;;12.40;8.87;;;16.70;99.90;;;;;;4807426;29;20426;-62
2021/09/10 00:58:01;;;;;;;13.13;9.63;;;16.70;99.90;;;;;;4807266;29;20474;-62
2021/09/10 01:00:27;;;;;;;14.20;9.90;;;16.70;99.90;;;;;;4807547;29;20422;-62
2021/09/10 01:02:54;;;;;;;11.37;10.27;;;16.60;99.90;;;;;;4807279;29;20424;-62
2021/09/10 01:05:20;;;;;;;10.53;8.93;;;16.60;99.90;;;;;;4805949;29;20430;-63
2021/09/10 01:07:47;;;;;;;14.10;9.30;;;16.60;99.90;;;;;;4806980;29;20429;-62
2021/09/10 01:10:13;;;;;;;12.33;9.60;;;16.50;99.90;;;;;;4807005;29;20462;-62
2021/09/10 01:12:40;;;;;;;14.77;8.97;;;16.50;99.90;;;;;;4807142;29;20417;-63
2021/09/10 01:15:06;;;;;;;11.03;9.70;;;16.50;99.90;;;;;;4805805;29;20464;-63
2021/09/10 01:17:32;;;;;;;10.60;9.00;;;16.40;99.90;;;;;;4807021;29;20482;-63
2021/09/10 01:19:57;;;;;;;12.57;9.47;;;16.40;99.90;;;;;;4806943;29;20451;-62
2021/09/10 01:22:23;;;;;;;11.17;9.20;;;16.40;99.90;;;;;;4805835;29;20190;-62
2021/09/10 01:25:12;;;;;;;12.47;9.13;;;16.40;99.90;;;;;;4806842;29;20467;-63
2021/09/10 01:27:45;;;;;;;13.03;9.93;;;16.30;99.90;;;;;;4805737;29;20532;-63
2021/09/10 01:30:13;;;;;;;14.70;9.67;;;16.30;99.90;;;;;;4805721;29;20487;-63
2021/09/10 01:32:39;;;;;;;14.83;10.00;;;16.30;99.90;;;;;;4806876;29;20422;-62
2021/09/10 01:35:06;;;;;;;13.23;9.00;;;16.30;99.90;;;;;;4806691;29;20478;-62
2021/09/10 01:37:32;;;;;;;12.23;8.67;;;16.20;99.90;;;;;;4806676;29;20474;-62
2021/09/10 01:39:58;;;;;;;12.17;9.40;;;16.20;99.90;;;;;;4820780;29;20525;-62
2021/09/10 01:42:23;;;;;;;10.90;9.10;;;16.20;99.90;;;;;;4806766;29;20182;-62
2021/09/10 01:44:49;;;;;;;12.43;9.00;;;16.20;99.90;;;;;;4806501;29;20201;-63
2021/09/10 01:47:15;;;;;;;11.60;10.17;;;16.20;99.90;;;;;;4806760;29;20179;-62
2021/09/10 01:49:40;;;;;;;11.70;8.87;;;16.20;99.90;;;;;;4806536;29;20198;-62
2021/09/10 01:52:06;;;;;;;11.07;9.00;;;16.20;99.90;;;;;;4806648;29;20212;-62
2021/09/10 01:54:32;;;;;;;14.07;8.73;;;16.20;99.90;;;;;;4806594;29;20448;-62
2021/09/10 01:56:58;;;;;;;12.93;9.90;;;16.10;99.90;;;;;;4806949;29;20194;-62
2021/09/10 01:59:24;;;;;;;12.57;10.27;;;16.20;99.90;;;;;;4806569;29;20438;-62
2021/09/10 02:01:49;;;;;;;11.80;10.43;;;16.20;99.90;;;;;;4807092;29;20270;-62
2021/09/10 02:04:15;;;;;;;10.50;8.90;;;16.20;99.90;;;;;;4806472;29;20259;-62
2021/09/10 02:06:40;;;;;;;12.67;9.23;;;16.20;99.90;;;;;;4807002;29;20187;-62
2021/09/10 02:09:06;;;;;;;11.93;9.40;;;16.20;99.90;;;;;;4806490;29;20237;-62
2021/09/10 02:11:31;;;;;;;11.27;8.77;;;16.20;99.90;;;;;;4820784;29;20251;-62
2021/09/10 02:13:57;;;;;;;13.90;9.90;;;16.20;99.90;;;;;;4806343;29;20676;-63
2021/09/10 02:16:23;;;;;;;14.90;9.40;;;16.10;99.90;;;;;;4806904;29;20255;-63
2021/09/10 02:18:48;;;;;;;12.00;9.80;;;16.10;99.90;;;;;;4808139;29;20226;-62
2021/09/10 02:21:14;;;;;;;13.53;9.80;;;16.10;99.90;;;;;;4810462;29;20205;-62
2021/09/10 02:23:41;;;;;;;14.83;9.20;;;16.10;99.90;;;;;;4809943;29;20215;-63
2021/09/10 02:26:06;;;;;;;12.63;10.10;;;16.10;99.90;;;;;;4810267;29;20182;-63
2021/09/10 02:28:32;;;;;;;11.10;9.90;;;16.10;99.90;;;;;;4809918;29;20818;-62
2021/09/10 02:30:57;;;;;;;13.93;9.97;;;16.10;99.90;;;;;;4810228;29;20334;-63
2021/09/10 02:33:24;;;;;;;11.90;9.47;;;16.00;99.90;;;;;;4809929;29;20302;-62
2021/09/10 02:35:49;;;;;;;11.00;9.50;;;16.00;99.90;;;;;;4808458;29;20254;-62
2021/09/10 02:38:15;;;;;;;10.60;9.00;;;16.00;99.90;;;;;;4809670;29;20900;-62
2021/09/10 02:40:41;;;;;;;15.73;10.57;;;15.90;99.90;;;;;;4809971;29;20186;-62
2021/09/10 02:43:06;;;;;;;10.77;8.97;;;15.90;99.90;;;;;;4809768;29;20274;-63
2021/09/10 02:45:32;;;;;;;10.23;8.93;;;15.90;99.90;;;;;;4809966;29;20656;-62
2021/09/10 02:47:57;;;;;;;10.37;9.30;;;15.90;99.90;;;;;;4809586;29;20178;-62
2021/09/10 02:50:23;;;;;;;11.53;9.27;;;15.90;99.90;;;;;;4809767;29;20183;-62
2021/09/10 02:52:52;;;;;;;11.30;8.30;;;15.90;99.90;;;;;;4809550;29;20245;-62
2021/09/10 02:55:18;;;;;;;11.40;9.10;;;15.80;99.90;;;;;;4809610;29;20201;-62
2021/09/10 02:57:44;;;;;;;14.03;10.10;;;15.80;99.90;;;;;;4809451;29;20453;-62
2021/09/10 03:00:10;;;;;;;11.43;9.13;;;15.80;99.90;;;;;;4809448;29;20209;-62
2021/09/10 03:02:36;;;;;;;15.47;9.03;;;15.70;99.90;;;;;;4809498;29;20526;-63
2021/09/10 03:05:06;;;;;;;10.83;9.40;;;15.70;99.90;;;;;;4808051;29;20476;-63
2021/09/10 03:07:31;;;;;;;12.10;8.67;;;15.70;99.90;;;;;;4809300;29;20426;-63
2021/09/10 03:09:57;;;;;;;17.10;9.50;;;15.80;99.90;;;;;;4808040;29;20481;-62
2021/09/10 03:12:23;;;;;;;15.97;9.60;;;15.80;99.90;;;;;;4809209;29;20595;-62
2021/09/10 03:14:48;;;;;;;9.47;8.57;;;15.80;99.90;;;;;;4807789;29;20229;-62
2021/09/10 03:17:14;;;;;;;12.50;8.67;;;15.80;99.90;;;;;;4809083;29;20221;-62
2021/09/10 03:19:40;;;;;;;13.27;8.57;;;15.80;99.90;;;;;;4808867;29;20666;-63
2021/09/10 03:22:06;;;;;;;11.83;10.43;;;15.80;99.90;;;;;;4809058;29;20186;-62
2021/09/10 03:24:32;;;;;;;15.13;9.40;;;15.90;99.90;;;;;;4809015;29;20546;-62
2021/09/10 03:26:58;;;;;;;11.07;9.23;;;15.90;99.90;;;;;;4809432;29;20870;-62
2021/09/10 03:29:25;;;;;;;12.97;8.33;;;15.90;99.90;;;;;;4807411;29;20430;-62
2021/09/10 03:31:51;;;;;;;10.30;8.80;;;15.90;99.90;;;;;;4809376;29;20427;-62
2021/09/10 03:34:16;;;;;;;10.77;8.50;;;15.90;99.90;;;;;;4808587;29;20443;-62
2021/09/10 03:36:42;;;;;;;9.90;8.23;;;15.90;99.90;;;;;;4808799;29;20198;-63
2021/09/10 03:39:08;;;;;;;9.90;8.37;;;15.90;99.90;;;;;;4808750;29;20222;-62
2021/09/10 03:41:33;;;;;;;11.70;8.00;;;15.90;99.90;;;;;;4809132;29;20207;-62
2021/09/10 03:43:59;;;;;;;10.03;8.70;;;15.90;99.90;;;;;;4808677;29;20213;-62
2021/09/10 03:46:24;;;;;;;18.23;8.97;;;15.90;99.90;;;;;;4809020;29;20248;-62
2021/09/10 03:48:50;;;;;;;11.83;9.20;;;15.90;99.90;;;;;;4808506;29;20213;-62
2021/09/10 03:51:17;;;;;;;11.00;9.03;;;15.80;99.90;;;;;;4809063;29;20182;-62
2021/09/10 03:53:43;;;;;;;11.57;8.90;;;15.70;99.90;;;;;;4808426;29;20813;-62
2021/09/10 03:56:09;;;;;;;13.23;8.60;;;15.70;99.90;;;;;;4808853;29;20438;-63
2021/09/10 03:58:35;;;;;;;9.37;8.43;;;15.60;99.90;;;;;;4806812;29;20490;-63
2021/09/10 04:01:01;;;;;;;16.70;11.00;;;15.50;99.90;;;;;;4807087;29;20521;-62
2021/09/10 04:03:26;;;;;;;13.67;9.90;;;15.50;99.90;;;;;;4808402;29;20725;-62
2021/09/10 04:05:52;;;;;;;13.07;9.57;;;15.40;99.90;;;;;;4808437;29;20191;-62
2021/09/10 04:08:18;;;;;;;14.40;11.07;;;15.40;99.90;;;;;;4808249;29;20211;-62
2021/09/10 04:10:44;;;;;;;11.17;8.30;;;15.40;99.90;;;;;;4808125;29;20193;-63
2021/09/10 04:13:10;;;;;;;14.73;8.77;;;15.40;99.90;;;;;;4814850;29;20710;-62
2021/09/10 04:15:36;;;;;;;13.60;9.30;;;15.40;99.90;;;;;;4825066;29;20267;-62
2021/09/10 04:18:03;;;;;;;10.43;8.83;;;15.40;99.90;;;;;;4825995;29;21002;-62
2021/09/10 04:20:29;;;;;;;16.33;9.33;;;15.40;99.90;;;;;;4826323;29;20421;-63
2021/09/10 04:22:54;;;;;;;13.57;9.30;;;15.40;99.90;;;;;;4825662;29;20508;-63
2021/09/10 04:25:20;;;;;;;13.30;9.40;;;15.40;99.90;;;;;;4817684;29;20896;-63
2021/09/10 04:27:46;;;;;;;17.80;9.63;;;15.40;99.90;;;;;;4819986;29;20202;-63
2021/09/10 04:30:12;;;;;;;12.87;9.07;;;15.40;99.90;;;;;;4825468;29;20468;-63
2021/09/10 04:32:38;;;;;;;13.80;9.07;;;15.40;99.90;;;;;;4825852;29;20223;-63
2021/09/10 04:35:06;;;;;;;10.90;7.80;;;15.40;99.90;;;;;;4824193;29;20816;-63
2021/09/10 04:37:31;;;;;;;11.20;8.83;;;15.40;99.90;;;;;;4825863;29;20469;-63
2021/09/10 04:39:57;;;;;;;12.80;8.80;;;15.40;99.90;;;;;;4824506;29;20449;-63
2021/09/10 04:42:23;;;;;;;11.63;9.30;;;15.40;99.90;;;;;;4824828;29;20592;-63
2021/09/10 04:44:49;;;;;;;10.70;8.67;;;15.40;99.90;;;;;;4824055;29;20559;-62
2021/09/10 04:47:14;;;;;;;11.93;9.03;;;15.40;99.90;;;;;;4825780;29;20421;-62
2021/09/10 04:49:41;;;;;;;11.10;9.73;;;15.40;99.90;;;;;;4824291;29;20198;-64
2021/09/10 04:52:07;;;;;;;10.17;8.40;;;15.40;99.90;;;;;;4824035;29;20246;-62
2021/09/10 04:54:33;;;;;;;11.20;8.80;;;15.40;99.90;;;;;;4823390;29;20461;-63
2021/09/10 04:56:58;;;;;;;11.50;8.90;;;15.50;99.90;;;;;;4823596;29;20453;-63
2021/09/10 04:59:24;;;;;;;10.20;8.13;;;15.50;99.90;;;;;;4825042;29;20297;-62
2021/09/10 05:01:50;;;;;;;16.63;8.80;;;15.50;99.90;;;;;;4823936;29;20193;-63
2021/09/10 05:04:17;;;;;;;12.23;8.60;;;15.50;99.90;;;;;;4824422;29;20214;-62
2021/09/10 05:06:43;;;;;;;10.80;8.93;;;15.50;99.90;;;;;;4825001;29;20644;-62
2021/09/10 05:09:08;;;;;;;12.80;8.77;;;15.60;99.90;;;;;;4824997;29;20468;-62
2021/09/10 05:11:34;;;;;;;11.00;8.10;;;15.60;99.90;;;;;;4825800;29;20203;-62
2021/09/10 05:13:59;;;;;;;11.60;8.50;;;15.70;99.90;;;;;;4824925;29;20680;-62
2021/09/10 05:16:25;;;;;;;16.70;9.07;;;15.60;99.90;;;;;;4824745;29;20194;-62
2021/09/10 05:18:51;;;;;;;11.87;8.27;;;15.70;99.90;;;;;;4824679;29;20230;-64
2021/09/10 05:21:16;;;;;;;11.00;8.47;;;15.70;99.90;;;;;;4823747;29;20194;-62
2021/09/10 05:23:42;;;;;;;10.67;8.87;;;15.80;99.90;;;;;;4822668;29;20643;-63
2021/09/10 05:26:07;;;;;;;11.70;9.10;;;15.80;99.90;;;;;;4824606;29;20264;-62
2021/09/10 05:28:33;;;;;;;9.60;8.00;;;15.90;99.90;;;;;;4824718;29;20299;-63
2021/09/10 05:30:58;;;;;;;11.37;8.80;;;15.90;99.90;;;;;;4816124;29;20250;-63
2021/09/10 05:33:24;;;;;;;15.60;9.37;;;15.90;99.90;;;;;;4822582;29;20301;-63
2021/09/10 05:35:50;;;;;;;16.57;9.47;;;15.90;99.90;;;;;;4823514;29;20290;-63
2021/09/10 05:38:15;;;;;;;10.93;9.20;;;16.00;99.90;;;;;;4817050;29;20696;-62
2021/09/10 05:40:41;;;;;;;16.23;8.97;;;16.00;99.90;;;;;;4824379;29;20547;-63
2021/09/10 05:43:06;;;;;;;12.23;9.30;;;16.10;99.90;;;;;;4823308;29;20613;-63
2021/09/10 05:45:32;;;;;;;17.00;9.40;;;16.10;99.90;;;;;;4820897;29;20685;-64
2021/09/10 05:47:58;;;;;;;12.60;8.80;;;16.10;99.90;;;;;;4823335;29;20680;-64
2021/09/10 05:50:23;;;;;;;14.50;9.60;;;16.20;99.90;;;;;;4822711;29;20279;-63
2021/09/10 05:52:49;;;;;;;10.83;9.70;;;16.20;99.90;;;;;;4820096;29;20205;-64
2021/09/10 05:55:14;;;;;;;10.40;8.53;;;16.30;99.90;;;;;;4821781;29;20266;-64
2021/09/10 05:57:40;;;;;;;15.23;10.10;;;16.30;99.90;;;;;;4821248;29;20233;-65
2021/09/10 06:00:07;;;;;;;16.83;9.50;;;16.40;99.90;;;;;;4813849;29;20700;-63
2021/09/10 06:02:33;;;;;;;12.47;9.60;;;16.40;99.90;;;;;;4817503;29;20198;-63
2021/09/10 06:04:59;;;;;;;12.37;9.83;;;16.50;99.90;;;;;;4812537;29;21009;-65
2021/09/10 06:07:24;;;;;;;13.10;9.50;;;16.50;99.90;;;;;;4808827;29;20199;-64
2021/09/10 06:09:50;;;;;;;9.33;8.47;;;16.60;99.90;;;;;;4813599;29;21606;-63
2021/09/10 06:12:15;;;;;;;9.33;8.33;;;16.60;99.90;;;;;;4815971;29;20267;-65
2021/09/10 06:14:41;;;;;;;12.47;9.50;;;16.70;99.90;;;;;;4817533;29;20703;-65
2021/09/10 06:17:06;;;;;;;12.37;9.40;;;16.70;99.90;;;;;;4814277;29;20213;-64
2021/09/10 06:19:32;;;;;;;13.00;10.43;;;16.80;99.90;;;;;;4818039;29;20292;-63
2021/09/10 06:21:58;;;;;;;11.50;10.23;;;16.90;99.90;;;;;;4814731;29;20261;-63
2021/09/10 06:24:23;;;;;;;11.97;10.60;;;16.90;99.90;;;;;;4811446;29;20217;-64
2021/09/10 06:26:49;;;;;;;13.20;10.80;;;17.00;99.90;;;;;;4816299;29;20190;-63
2021/09/10 06:29:15;;;;;;;12.33;9.43;;;17.10;99.90;;;;;;4815892;29;20222;-63
2021/09/10 06:31:41;;;;;;;13.27;9.10;;;17.10;99.90;;;;;;4817335;29;20449;-65
2021/09/10 06:34:07;;;;;;;12.63;8.87;;;17.20;99.90;;;;;;4812660;29;20844;-64
2021/09/10 06:36:33;;;;;;;14.87;8.83;;;17.30;99.90;;;;;;4816117;29;20249;-64
2021/09/10 06:38:58;;;;;;;17.00;7.90;;;17.30;99.90;;;;;;4816649;29;21067;-64
2021/09/10 06:41:24;;;;;;;11.07;8.53;;;17.40;99.90;;;;;;4819603;29;20200;-64
2021/09/10 06:43:49;;;;;;;10.17;7.80;;;17.50;99.90;;;;;;4817459;29;20218;-65
2021/09/10 06:46:15;;;;;;;8.80;7.60;;;17.60;99.90;;;;;;4808383;29;20437;-65
2021/09/10 06:48:41;;;;;;;9.67;7.53;;;17.70;99.90;;;;;;4816225;29;20407;-64
2021/09/10 06:51:07;;;;;;;8.47;7.30;;;17.80;99.90;;;;;;4821271;29;20637;-66
2021/09/10 06:53:35;;;;;;;11.77;6.90;;;17.90;99.90;;;;;;4812976;29;20218;-67
2021/09/10 06:56:01;;;;;;;6.97;6.27;;;18.00;99.90;;;;;;4817498;29;20801;-65
2021/09/10 06:58:27;;;;;;;7.20;6.20;;;18.00;99.90;;;;;;4820386;29;20493;-64
2021/09/10 07:00:52;;;;;;;9.90;6.83;;;18.10;99.90;;;;;;4819924;29;20983;-66
2021/09/10 07:03:18;;;;;;;8.80;5.67;;;18.30;99.90;;;;;;4818336;29;20460;-66
2021/09/10 07:05:43;;;;;;;5.87;5.27;;;18.30;99.90;;;;;;4817650;29;20213;-66
2021/09/10 07:08:09;;;;;;;5.87;5.30;;;18.40;99.90;;;;;;4817260;29;20209;-65
2021/09/10 07:10:35;;;;;;;7.70;5.50;;;18.60;99.90;;;;;;4816307;29;20193;-65
2021/09/10 07:13:01;;;;;;;6.30;4.63;;;18.70;99.90;;;;;;4820500;29;20532;-66
2021/09/10 07:15:27;;;;;;;8.50;4.57;;;18.80;99.90;;;;;;4821284;29;20441;-67
2021/09/10 07:17:53;;;;;;;6.20;5.03;;;18.90;99.90;;;;;;4816135;29;20278;-65
2021/09/10 07:20:18;;;;;;;8.37;5.73;;;19.10;99.90;;;;;;4815898;29;20187;-65
2021/09/10 07:22:44;;;;;;;4.87;4.37;;;19.20;99.90;;;;;;4830701;29;20595;-65
2021/09/10 07:25:10;;;;;;;5.83;5.03;;;19.30;99.90;;;;;;4821619;29;20266;-65
2021/09/10 07:27:36;;;;;;;7.07;4.97;;;19.40;99.90;;;;;;4819985;29;20201;-68
2021/09/10 07:30:02;;;;;;;9.50;5.73;;;19.50;99.90;;;;;;4821168;29;20457;-65
2021/09/10 07:32:28;;;;;;;5.50;4.50;;;19.60;99.90;;;;;;4818905;29;20194;-66
2021/09/10 07:34:53;;;;;;;5.97;5.30;;;19.70;99.90;;;;;;4822060;29;20479;-66
2021/09/10 07:37:26;;;;;;;6.60;4.97;;;19.80;99.90;;;;;;4817659;29;20704;-67
2021/09/10 07:39:52;;;;;;;6.10;5.00;;;20.00;99.90;;;;;;4822511;29;20589;-66
2021/09/10 07:42:18;;;;;;;9.73;4.90;;;20.10;99.90;;;;;;4818093;29;20454;-67
2021/09/10 07:44:43;;;;;;;8.00;5.13;;;20.20;99.90;;;;;;4823785;29;21064;-66
2021/09/10 07:47:11;;;;;;;6.20;4.60;;;20.30;99.90;;;;;;4814013;29;20211;-63
2021/09/10 07:49:36;;;;;;;7.73;4.77;;;20.40;99.90;;;;;;4814029;29;20243;-67
2021/09/10 07:52:02;;;;;;;10.63;4.93;;;20.50;99.70;;;;;;4817571;29;20978;-67
2021/09/10 07:54:28;;;;;;;6.00;4.43;;;20.60;99.70;;;;;;4818502;29;20571;-65
2021/09/10 07:56:56;;;;;;;6.50;4.20;;;20.70;99.60;;;;;;4821794;29;20184;-67
2021/09/10 07:59:22;;;;;;;7.50;4.13;;;20.90;99.30;;;;;;4823445;29;20274;-64
2021/09/10 08:01:48;;;;;;;5.73;4.90;;;21.00;98.70;;;;;;4822638;29;20475;-64
2021/09/10 08:04:13;;;;;;;11.07;7.87;;;21.10;98.40;;;;;;4818189;29;20226;-66
2021/09/10 08:06:39;;;;;;;6.93;5.33;;;21.20;98.00;;;;;;4818990;29;20451;-64
2021/09/10 08:09:05;;;;;;;10.87;4.90;;;21.30;97.00;;;;;;4822174;29;20219;-66
2021/09/10 08:11:33;;;;;;;4.70;4.27;;;21.40;97.10;;;;;;4819137;29;20544;-67
2021/09/10 08:14:02;;;;;;;4.50;3.50;;;21.60;97.00;;;;;;4821610;29;20480;-64
2021/09/10 08:16:28;;;;;;;6.00;4.40;;;21.70;96.80;;;;;;4814025;29;20476;-65
2021/09/10 08:18:54;;;;;;;5.03;3.63;;;21.90;96.30;;;;;;4820355;29;20508;-64
2021/09/10 08:21:19;;;;;;;5.43;4.40;;;22.10;96.10;;;;;;4818692;29;20480;-64
2021/09/10 08:23:45;;;;;;;3.80;3.50;;;22.30;95.20;;;;;;4817330;29;20304;-66
2021/09/10 08:26:11;;;;;;;5.23;4.10;;;22.50;95.10;;;;;;4818724;29;20198;-66
2021/09/10 08:28:36;;;;;;;7.00;4.20;;;22.70;94.90;;;;;;4815638;29;20700;-66
2021/09/10 08:31:02;;;;;;;5.33;3.40;;;22.90;93.90;;;;;;4816166;29;20198;-67
2021/09/10 08:33:27;;;;;;;5.33;4.03;;;23.10;93.60;;;;;;4813189;29;20218;-67
2021/09/10 08:35:53;;;;;;;5.40;3.90;;;23.30;93.10;;;;;;4812993;29;20397;-67
2021/09/10 08:38:19;;;;;;;4.50;4.10;;;23.50;93.10;;;;;;4813883;29;20245;-67
2021/09/10 08:40:46;;;;;;;6.37;4.53;;;23.70;92.30;;;;;;4815657;29;20207;-66
2021/09/10 08:43:13;;;;;;;6.67;3.50;;;23.80;92.20;;;;;;4811912;29;20230;-67
2021/09/10 08:45:40;;;;;;;5.87;3.90;;;24.00;91.90;;;;;;4818190;29;20437;-64
2021/09/10 08:48:07;;;;;;;5.10;3.40;;;24.10;91.80;;;;;;4815137;29;20465;-64
2021/09/10 08:50:32;;;;;;;3.87;3.57;;;24.20;91.60;;;;;;4815399;29;20433;-64
2021/09/10 08:52:58;;;;;;;8.17;4.10;;;24.30;91.30;;;;;;4816989;29;21051;-64
2021/09/10 08:55:24;;;;;;;5.20;3.60;;;24.40;91.10;;;;;;4812522;29;20797;-63
2021/09/10 08:57:54;;;;;;;5.40;3.60;;;24.40;91.10;;;;;;4813748;29;20229;-64
2021/09/10 09:03:09;;;;;;;4.23;3.63;;;24.50;90.40;;;;;;4918475;24;20715;-68
2021/09/10 09:05:35;;;;;;;4.20;3.80;;;24.50;90.60;;;;;;4830793;29;20445;-68
2021/09/10 09:08:08;;;;;;;7.87;5.77;;;24.50;90.50;;;;;;4828836;29;20964;-65
2021/09/10 09:11:06;;;;;;;4.83;4.33;;;24.50;89.70;;;;;;4833130;29;20443;-65
2021/09/10 09:13:35;;;;;;;4.90;4.40;;;24.50;89.30;;;;;;4831843;29;20529;-62
2021/09/10 09:16:23;;;;;;;5.53;3.70;;;24.50;89.30;;;;;;4832348;29;20463;-67
2021/09/10 09:18:55;;;;;;;5.47;3.63;;;24.50;88.20;;;;;;4830967;29;20477;-63
2021/09/10 09:21:23;;;;;;;10.60;5.17;;;24.60;88.10;;;;;;4829494;29;20549;-63
2021/09/10 09:23:51;;;;;;;5.37;4.73;;;24.60;88.10;;;;;;4830517;29;20792;-63
2021/09/10 09:26:20;;;;;;;3.70;3.40;;;24.60;88.20;;;;;;4829165;29;20474;-66
2021/09/10 09:28:46;;;;;;;5.63;3.67;;;24.60;87.70;;;;;;4827925;29;20433;-63
2021/09/10 09:31:13;;;;;;;6.80;3.93;;;24.60;87.00;;;;;;4829782;29;20475;-63
2021/09/10 09:33:44;;;;;;;4.73;3.77;;;24.60;86.40;;;;;;4832218;29;20419;-66
2021/09/10 09:36:13;;;;;;;5.13;3.77;;;24.60;87.50;;;;;;4833604;29;20476;-62
2021/09/10 09:38:41;;;;;;;7.83;4.17;;;24.60;87.10;;;;;;4833564;29;20838;-67
2021/09/10 09:41:09;;;;;;;7.40;3.80;;;24.70;87.10;;;;;;4824676;29;20463;-64
2021/09/10 09:43:41;;;;;;;4.30;3.90;;;24.70;88.00;;;;;;4834864;29;20448;-65
2021/09/10 09:46:15;;;;;;;6.40;3.97;;;24.70;87.10;;;;;;4827896;29;20979;-64
2021/09/10 09:48:43;;;;;;;6.13;3.37;;;24.80;86.30;;;;;;4828320;29;20442;-64
2021/09/10 09:51:15;;;;;;;5.10;3.50;;;24.80;86.50;;;;;;4830694;29;20469;-66
2021/09/10 09:53:41;;;;;;;4.37;3.97;;;24.80;85.30;;;;;;4839183;29;20795;-64
2021/09/10 09:56:08;;;;;;;4.73;4.23;;;24.90;85.80;;;;;;4833938;29;20793;-64
2021/09/10 09:58:34;;;;;;;3.10;2.90;;;24.90;85.60;;;;;;4831781;29;20475;-67
2021/09/10 10:01:01;;;;;;;6.73;3.60;;;24.90;86.20;;;;;;4832590;29;20835;-66
2021/09/10 10:03:27;;;;;;;5.27;4.17;;;24.90;85.70;;;;;;4834738;29;20784;-66
2021/09/10 10:06:02;;;;;;;5.27;3.63;;;24.90;85.20;;;;;;4836662;29;20455;-64
2021/09/10 10:09:07;;;;;;;9.30;5.37;;;25.00;84.90;;;;;;4828966;29;20179;-67
2021/09/10 10:11:58;;;;;;;5.20;4.23;;;25.00;84.70;;;;;;4789240;29;20560;-64
2021/09/10 10:14:37;;;;;;;3.93;2.90;;;25.10;83.20;;;;;;4833392;29;20785;-64
2021/09/10 10:17:03;;;;;;;3.50;3.20;;;25.10;83.20;;;;;;4831833;29;20515;-64
2021/09/10 10:19:36;;;;;;;5.60;4.17;;;25.10;82.70;;;;;;4831043;29;20474;-64
2021/09/10 10:22:08;;;;;;;4.00;3.70;;;25.20;83.20;;;;;;4832519;29;20471;-67
2021/09/10 10:24:58;;;;;;;4.80;3.10;;;25.20;82.60;;;;;;4830874;29;20927;-66
2021/09/10 10:27:35;;;;;;;6.20;3.90;;;25.20;82.40;;;;;;4836378;29;20473;-67
2021/09/10 10:30:06;;;;;;;4.00;3.57;;;25.20;82.10;;;;;;4833350;29;20532;-67
2021/09/10 10:32:38;;;;;;;5.67;3.60;;;25.20;82.30;;;;;;4836865;29;20474;-68
2021/09/10 10:35:25;;;;;;;3.87;3.03;;;25.30;82.00;;;;;;4825997;29;20444;-64
2021/09/10 10:37:55;;;;;;;3.87;3.47;;;25.40;82.30;;;;;;4822769;29;20514;-64
2021/09/10 10:40:25;;;;;;;3.90;3.53;;;25.40;82.40;;;;;;4838925;29;20443;-66
2021/09/10 10:42:52;;;;;;;4.73;3.50;;;25.40;82.00;;;;;;4842425;29;20462;-64
2021/09/10 10:45:40;;;;;;;5.33;3.43;;;25.50;83.10;;;;;;4838564;29;20802;-64
2021/09/10 10:48:28;;;;;;;3.70;3.40;;;25.50;81.80;;;;;;4841967;29;20458;-66
2021/09/10 10:50:54;;;;;;;4.00;3.70;;;25.50;80.60;;;;;;4832566;29;20431;-66
2021/09/10 10:53:20;;;;;;;3.80;3.17;;;25.60;80.70;;;;;;4841552;29;20674;-67
2021/09/10 10:55:46;;;;;;;4.70;3.37;;;25.60;80.80;;;;;;4836917;29;20439;-67
2021/09/10 10:58:27;;;;;;;4.87;3.20;;;25.60;80.10;;;;;;4841432;29;20471;-64
2021/09/10 11:01:00;;;;;;;4.50;3.33;;;25.70;81.10;;;;;;4840409;29;20305;-66
2021/09/10 11:03:26;;;;;;;5.40;3.67;;;25.70;81.50;;;;;;4836856;29;20448;-64
2021/09/10 11:05:54;;;;;;;5.97;3.47;;;25.80;80.90;;;;;;4839480;29;20488;-66
2021/09/10 11:08:36;;;;;;;5.87;3.57;;;25.80;80.30;;;;;;4841628;29;20623;-64
2021/09/10 11:11:03;;;;;;;6.27;3.83;;;25.80;80.10;;;;;;4832988;29;20907;-67
2021/09/10 11:13:29;;;;;;;5.37;3.90;;;25.80;79.00;;;;;;4834407;29;20786;-67
2021/09/10 11:15:56;;;;;;;4.30;3.60;;;25.80;78.60;;;;;;4835039;29;20441;-64
2021/09/10 11:18:23;;;;;;;4.30;3.90;;;25.80;78.40;;;;;;4830266;29;20478;-64
2021/09/10 11:20:53;;;;;;;6.67;3.60;;;25.80;78.80;;;;;;4832194;29;20438;-64
2021/09/10 11:23:37;;;;;;;4.40;4.00;;;25.80;79.00;;;;;;4832291;29;20425;-67
2021/09/10 11:26:09;;;;;;;5.17;3.70;;;25.90;79.40;;;;;;4829923;29;20466;-67
2021/09/10 11:28:36;;;;;;;4.17;3.60;;;25.90;79.70;;;;;;4833552;29;20531;-68
2021/09/10 11:31:03;;;;;;;6.53;3.80;;;26.00;80.60;;;;;;4827333;29;20479;-67
2021/09/10 11:33:39;;;;;;;3.77;3.20;;;26.00;79.80;;;;;;4839021;29;20492;-64
2021/09/10 11:36:04;;;;;;;3.93;3.50;;;26.00;79.80;;;;;;4831018;29;20479;-65
2021/09/10 11:38:31;;;;;;;4.67;3.50;;;26.10;78.60;;;;;;4838421;29;20492;-66
2021/09/10 11:40:59;;;;;;;4.63;3.60;;;26.10;77.10;;;;;;4832649;29;20307;-63
2021/09/10 11:43:26;;;;;;;5.03;3.80;;;26.10;77.40;;;;;;4835214;29;20478;-66
2021/09/10 11:45:54;;;;;;;4.50;3.30;;;26.10;77.70;;;;;;4841128;29;20440;-66
2021/09/10 11:48:36;;;;;;;4.47;3.47;;;26.20;77.30;;;;;;4834965;29;20429;-64
2021/09/10 11:51:04;;;;;;;5.80;3.70;;;26.20;76.50;;;;;;4834408;29;20483;-65
2021/09/10 11:53:36;;;;;;;3.83;3.50;;;26.20;77.20;;;;;;4835154;29;20476;-66
2021/09/10 11:56:06;;;;;;;3.53;3.23;;;26.20;76.40;;;;;;4834609;29;20476;-65
2021/09/10 11:58:39;;;;;;;3.73;3.30;;;26.30;76.70;;;;;;4834689;29;20874;-63
2021/09/10 12:01:23;;;;;;;4.97;3.27;;;26.30;77.20;;;;;;4841586;29;20497;-63
2021/09/10 12:03:58;;;;;;;3.57;3.10;;;26.30;77.00;;;;;;4842015;29;20452;-67
2021/09/10 12:06:32;;;;;;;3.63;3.33;;;26.30;76.90;;;;;;4839760;29;20460;-63
2021/09/10 12:09:14;;;;;;;7.13;3.30;;;26.30;77.90;;;;;;4837313;29;20480;-67
2021/09/10 12:12:15;;;;;;;4.70;3.27;;;26.30;76.00;;;;;;4839363;29;20455;-63
2021/09/10 12:14:51;;;;;;;8.53;3.40;;;26.40;76.00;;;;;;4830381;29;20475;-67
2021/09/10 12:17:24;;;;;;;5.03;3.20;;;26.40;76.00;;;;;;4820849;29;20526;-63
2021/09/10 12:20:08;;;;;;;4.40;3.37;;;26.40;76.10;;;;;;4827043;29;20870;-64
2021/09/10 12:22:49;;;;;;;4.90;3.40;;;26.40;75.60;;;;;;4827010;29;20463;-63
2021/09/10 12:25:36;;;;;;;4.77;3.50;;;26.40;75.20;;;;;;4834134;29;20770;-67
2021/09/10 12:28:07;;;;;;;3.53;3.17;;;26.40;75.40;;;;;;4836527;29;20460;-66
2021/09/10 12:30:42;;;;;;;5.17;3.43;;;26.40;75.30;;;;;;4836813;29;20528;-67
2021/09/10 12:33:11;;;;;;;6.23;3.57;;;26.40;75.10;;;;;;4834888;29;20435;-66
2021/09/10 12:35:38;;;;;;;4.50;4.10;;;26.50;75.80;;;;;;4831142;29;20425;-64
2021/09/10 12:38:09;;;;;;;4.13;3.17;;;26.50;75.30;;;;;;4843470;29;20499;-66
2021/09/10 12:40:37;;;;;;;4.53;3.30;;;26.50;74.00;;;;;;4833030;29;20929;-63
2021/09/10 12:43:05;;;;;;;4.60;3.80;;;26.50;74.20;;;;;;4835735;29;20685;-67
2021/09/10 12:45:31;;;;;;;3.80;3.40;;;26.60;74.50;;;;;;4830524;29;20512;-63
2021/09/10 12:47:57;;;;;;;5.00;3.20;;;26.50;74.00;;;;;;4836129;29;20464;-66